Time;durP1;ratioP1;P1;durP2;ratioP2;P2;SDS_P1;SDS_P2;PMS_P1;PMS_P2;Temp;Humidity;BMP_temperature;BMP_pressure;BME280_temperature;BME280_humidity;BME280_pressure;Samples;Min_cycle;Max_cycle;Signal;HPM_P1;HPM_P2
2021/12/03 00:00:53;;;;;;;5.20;3.63;;;;;;;3.32;62.44;100509.28;4948804;28;96866;-86
2021/12/03 00:03:21;;;;;;;5.23;3.80;;;;;;;3.31;62.60;100500.34;4965567;28;97109;-87
2021/12/03 00:05:47;;;;;;;5.20;3.80;;;;;;;3.30;62.41;100504.25;4948456;28;97603;-86
2021/12/03 00:08:12;;;;;;;6.43;4.27;;;;;;;3.29;62.40;100521.03;4946788;28;97264;-85
2021/12/03 00:10:39;;;;;;;5.00;3.70;;;;;;;3.29;62.28;100507.44;4945697;28;97317;-86
2021/12/03 00:13:07;;;;;;;4.80;4.23;;;;;;;3.28;62.42;100506.66;4963118;28;97289;-86
2021/12/03 00:15:35;;;;;;;5.80;3.70;;;;;;;3.31;62.26;100510.47;4945906;28;97229;-86
2021/12/03 00:18:01;;;;;;;4.93;3.60;;;;;;;3.29;62.46;100512.88;4946703;28;100263;-86
2021/12/03 00:20:27;;;;;;;6.93;4.87;;;;;;;3.26;62.59;100509.06;4948350;28;96894;-86
2021/12/03 00:22:56;;;;;;;6.30;4.20;;;;;;;3.26;62.34;100487.31;4946668;28;96888;-86
2021/12/03 00:25:22;;;;;;;5.77;3.97;;;;;;;3.25;62.54;100495.94;4964008;28;97650;-87
2021/12/03 00:27:47;;;;;;;4.80;4.07;;;;;;;3.24;62.67;100476.16;4944594;28;97025;-86
2021/12/03 00:30:14;;;;;;;5.87;4.03;;;;;;;3.24;62.65;100506.03;4959305;28;97281;-87
2021/12/03 00:32:40;;;;;;;6.73;4.70;;;;;;;3.26;62.29;100490.03;4945568;28;97265;-86
2021/12/03 00:35:08;;;;;;;8.13;5.10;;;;;;;3.28;62.66;100484.91;4948128;28;96960;-86
2021/12/03 00:37:34;;;;;;;7.10;4.23;;;;;;;3.29;62.45;100488.41;4946363;28;99794;-86
2021/12/03 00:39:59;;;;;;;7.30;4.77;;;;;;;3.32;62.87;100498.41;4966995;28;97372;-86
2021/12/03 00:42:27;;;;;;;6.90;4.60;;;;;;;3.33;62.59;100494.44;4941182;28;97615;-86
2021/12/03 00:44:55;;;;;;;5.80;4.73;;;;;;;3.34;62.78;100504.13;4944653;28;97619;-86
2021/12/03 00:47:22;;;;;;;9.00;5.50;;;;;;;3.36;62.62;100488.13;4943971;28;99779;-86
2021/12/03 00:49:48;;;;;;;7.10;4.87;;;;;;;3.36;62.63;100493.56;4947707;28;97126;-86
2021/12/03 00:52:14;;;;;;;9.03;5.33;;;;;;;3.36;62.57;100491.63;4947661;28;97339;-86
2021/12/03 00:54:39;;;;;;;7.20;4.77;;;;;;;3.34;62.38;100487.84;4940109;28;99248;-87
2021/12/03 00:57:06;;;;;;;8.60;5.23;;;;;;;3.39;62.57;100506.25;4948808;28;99125;-86
2021/12/03 00:59:31;;;;;;;10.50;4.90;;;;;;;3.39;62.62;100504.31;4944400;28;97635;-86
2021/12/03 01:01:57;;;;;;;8.23;5.10;;;;;;;3.41;62.59;100506.56;4945774;28;97104;-86
2021/12/03 01:04:23;;;;;;;6.17;4.30;;;;;;;3.40;62.34;100514.00;4947290;28;97284;-86
2021/12/03 01:06:48;;;;;;;6.30;4.70;;;;;;;3.41;62.39;100523.66;4945116;28;99279;-87
2021/12/03 01:09:14;;;;;;;6.53;4.30;;;;;;;3.45;62.56;100526.25;4945405;28;96882;-86
2021/12/03 01:11:40;;;;;;;8.70;5.70;;;;;;;3.45;62.65;100526.97;4944377;28;97258;-86
2021/12/03 01:14:05;;;;;;;8.50;5.30;;;;;;;3.36;62.54;100513.38;4941029;28;97713;-87
2021/12/03 01:16:31;;;;;;;9.03;5.30;;;;;;;3.44;62.43;100514.59;4943570;28;96957;-87
2021/12/03 01:18:58;;;;;;;8.10;5.43;;;;;;;3.44;62.62;100524.72;4945009;28;97201;-86
2021/12/03 01:21:24;;;;;;;8.47;5.20;;;;;;;3.45;62.52;100512.66;4947323;28;97112;-86
2021/12/03 01:23:49;;;;;;;10.90;6.03;;;;;;;3.42;62.58;100500.69;4944070;28;97067;-86
2021/12/03 01:26:15;;;;;;;8.93;5.33;;;;;;;3.39;62.56;100528.78;4969701;28;97068;-87
2021/12/03 01:28:42;;;;;;;8.53;5.50;;;;;;;3.43;62.62;100512.34;4942520;28;97236;-86
2021/12/03 01:31:07;;;;;;;9.87;5.53;;;;;;;3.40;62.61;100524.88;4966691;28;97125;-88
2021/12/03 01:33:33;;;;;;;7.87;5.00;;;;;;;3.42;62.67;100532.56;4946255;28;99323;-86
2021/12/03 01:35:59;;;;;;;7.73;4.57;;;;;;;3.43;62.58;100504.91;4946578;28;99154;-88
2021/12/03 01:38:24;;;;;;;8.97;5.13;;;;;;;3.44;62.56;100528.22;4944652;28;97142;-87
2021/12/03 01:40:50;;;;;;;9.63;5.50;;;;;;;3.45;62.59;100513.38;4945170;28;97062;-86
2021/12/03 01:43:22;;;;;;;9.30;5.27;;;;;;;3.43;62.91;100504.91;4946946;28;99577;-87
2021/12/03 01:45:50;;;;;;;9.97;5.53;;;;;;;3.43;62.63;100509.63;4941039;28;105223;-86
2021/12/03 01:48:15;;;;;;;10.87;5.67;;;;;;;3.43;62.74;100518.53;4963446;28;97272;-86
2021/12/03 01:50:44;;;;;;;8.57;5.67;;;;;;;3.44;62.78;100511.88;4944295;28;96811;-87
2021/12/03 01:53:12;;;;;;;8.20;4.87;;;;;;;3.45;62.76;100534.41;4957848;28;98632;-86
2021/12/03 01:55:39;;;;;;;8.53;5.80;;;;;;;3.49;62.68;100518.72;4945928;28;97752;-86
2021/12/03 01:58:05;;;;;;;9.23;4.60;;;;;;;3.53;62.53;100527.50;4944356;28;96871;-87
2021/12/03 02:00:36;;;;;;;8.50;5.40;;;;;;;3.54;62.59;100527.03;4945988;28;97203;-86
2021/12/03 02:03:04;;;;;;;8.07;5.20;;;;;;;3.52;62.62;100534.13;4948515;28;102337;-86
2021/12/03 02:05:30;;;;;;;8.10;5.20;;;;;;;3.53;62.62;100524.75;4944999;28;96644;-86
2021/12/03 02:07:55;;;;;;;6.53;4.20;;;;;;;3.51;62.50;100527.19;4961821;28;97164;-86
2021/12/03 02:10:23;;;;;;;7.30;4.23;;;;;;;3.55;62.83;100530.50;4946804;28;97414;-86
2021/12/03 02:12:49;;;;;;;11.07;5.20;;;;;;;3.56;62.68;100542.91;4951318;28;98436;-87
2021/12/03 02:15:14;;;;;;;7.20;4.73;;;;;;;3.58;62.89;100541.25;4945484;28;97536;-86
2021/12/03 02:17:40;;;;;;;9.90;5.23;;;;;;;3.55;62.71;100547.59;4945835;28;96793;-87
2021/12/03 02:20:09;;;;;;;7.73;4.53;;;;;;;3.52;62.73;100532.16;4944761;28;97037;-86
2021/12/03 02:22:36;;;;;;;5.77;4.53;;;;;;;3.52;62.61;100536.84;4944905;28;99560;-85
2021/12/03 02:25:02;;;;;;;8.23;4.70;;;;;;;3.56;62.87;100537.47;4945559;28;96779;-86
2021/12/03 02:27:28;;;;;;;6.17;4.50;;;;;;;3.56;62.56;100540.94;4960517;28;98854;-87
2021/12/03 02:29:53;;;;;;;6.60;4.53;;;;;;;3.55;62.85;100538.69;4945244;28;97389;-85
2021/12/03 02:32:18;;;;;;;6.53;4.70;;;;;;;3.55;62.74;100552.28;4943309;28;99682;-87
2021/12/03 02:34:44;;;;;;;7.50;4.87;;;;;;;3.54;62.93;100554.22;4946319;28;97678;-85
2021/12/03 02:37:09;;;;;;;9.50;5.17;;;;;;;3.55;62.85;100558.47;4944974;28;97163;-87
2021/12/03 02:39:35;;;;;;;8.23;4.53;;;;;;;3.57;62.75;100568.91;4946486;28;96897;-85
2021/12/03 02:42:01;;;;;;;10.80;5.90;;;;;;;3.59;62.80;100548.22;4942317;28;99298;-88
2021/12/03 02:44:26;;;;;;;8.53;4.97;;;;;;;3.61;62.95;100562.13;4943289;28;96926;-86
2021/12/03 02:46:51;;;;;;;7.90;4.63;;;;;;;3.60;63.06;100557.88;4943147;28;97053;-86
2021/12/03 02:49:17;;;;;;;7.67;4.37;;;;;;;3.61;62.79;100564.84;4945845;28;97635;-84
2021/12/03 02:51:42;;;;;;;7.50;4.33;;;;;;;3.61;62.83;100573.00;4944062;28;98726;-86
2021/12/03 02:54:09;;;;;;;7.93;4.27;;;;;;;3.63;63.05;100558.94;4942871;28;99700;-84
2021/12/03 02:56:35;;;;;;;6.40;4.40;;;;;;;3.64;62.67;100552.31;4946240;28;97202;-84
2021/12/03 02:59:00;;;;;;;9.20;4.73;;;;;;;3.65;62.91;100545.66;4945865;28;96897;-84
2021/12/03 03:01:26;;;;;;;6.87;4.57;;;;;;;3.63;62.87;100559.72;4959439;28;99161;-84
2021/12/03 03:03:52;;;;;;;6.90;4.67;;;;;;;3.61;62.86;100553.97;4945869;28;96853;-84
2021/12/03 03:06:17;;;;;;;4.93;3.83;;;;;;;3.63;63.11;100559.72;4945746;28;99305;-85
2021/12/03 03:08:44;;;;;;;8.13;4.80;;;;;;;3.65;62.95;100561.97;4947442;28;97330;-84
2021/12/03 03:11:10;;;;;;;8.20;4.83;;;;;;;3.63;62.85;100572.53;4950654;28;103629;-84
2021/12/03 03:13:37;;;;;;;7.20;4.70;;;;;;;3.68;63.00;100553.69;4949430;28;97597;-86
2021/12/03 03:16:03;;;;;;;7.67;5.03;;;;;;;3.68;63.05;100570.03;4952239;28;97088;-84
2021/12/03 03:18:29;;;;;;;5.60;4.10;;;;;;;3.73;62.92;100557.81;4948467;28;97063;-84
2021/12/03 03:20:59;;;;;;;7.10;4.43;;;;;;;3.75;62.90;100571.72;4946862;28;98651;-85
2021/12/03 03:23:25;;;;;;;5.57;4.30;;;;;;;3.76;62.90;100556.88;4948989;28;98777;-84
2021/12/03 03:25:51;;;;;;;7.07;4.40;;;;;;;3.77;62.86;100550.25;4967592;28;96879;-85
2021/12/03 03:28:18;;;;;;;9.43;4.63;;;;;;;3.75;63.11;100548.00;4952105;28;97274;-86
2021/12/03 03:30:47;;;;;;;7.27;4.50;;;;;;;3.73;63.00;100552.38;4965317;28;97942;-86
2021/12/03 03:33:14;;;;;;;8.90;4.80;;;;;;;3.75;63.11;100539.06;4964064;28;100573;-87
2021/12/03 03:35:39;;;;;;;7.80;4.83;;;;;;;3.75;63.07;100549.94;4966291;28;97063;-84
2021/12/03 03:38:06;;;;;;;6.30;4.50;;;;;;;3.71;62.87;100547.34;4949617;28;97856;-84
2021/12/03 03:40:31;;;;;;;6.70;4.60;;;;;;;3.73;63.17;100557.81;4951208;28;97065;-85
2021/12/03 03:42:59;;;;;;;6.73;4.50;;;;;;;3.76;63.16;100546.78;4958612;28;98022;-84
2021/12/03 03:45:25;;;;;;;6.80;4.63;;;;;;;3.77;63.12;100540.13;4942334;28;97037;-86
2021/12/03 03:47:51;;;;;;;6.83;4.27;;;;;;;3.76;63.10;100530.44;4947920;28;97275;-84
2021/12/03 03:50:19;;;;;;;7.10;4.20;;;;;;;3.77;63.31;100537.41;4944671;28;98301;-85
2021/12/03 03:52:46;;;;;;;8.40;4.10;;;;;;;3.77;63.09;100536.66;4946582;28;98393;-86
2021/12/03 03:55:13;;;;;;;9.07;4.53;;;;;;;3.76;63.18;100538.59;4943186;28;96987;-86
2021/12/03 03:57:41;;;;;;;9.20;4.80;;;;;;;3.79;63.10;100534.25;4950659;28;96988;-91
2021/12/03 04:00:09;;;;;;;8.23;5.20;;;;;;;3.78;63.23;100532.72;4948412;28;96852;-87
2021/12/03 04:02:35;;;;;;;9.00;5.33;;;;;;;3.77;63.18;100536.66;4949545;28;96760;-86
2021/12/03 04:05:00;;;;;;;9.73;4.43;;;;;;;3.74;63.21;100524.69;4948333;28;97067;-88
2021/12/03 04:07:26;;;;;;;9.03;5.27;;;;;;;3.82;63.06;100546.97;4948045;28;97056;-85
2021/12/03 04:09:51;;;;;;;8.80;5.67;;;;;;;3.79;63.24;100531.53;4947208;28;100868;-86
2021/12/03 04:12:16;;;;;;;8.40;4.73;;;;;;;3.77;63.21;100533.94;4948131;28;97303;-86
2021/12/03 04:14:42;;;;;;;7.90;4.83;;;;;;;3.75;63.15;100537.09;4949423;28;97227;-87
2021/12/03 04:17:08;;;;;;;6.10;4.70;;;;;;;3.75;63.27;100547.22;4962708;28;97022;-87
2021/12/03 04:19:33;;;;;;;10.40;5.20;;;;;;;3.74;63.31;100534.81;4945145;28;97163;-85
2021/12/03 04:21:59;;;;;;;9.37;4.87;;;;;;;3.75;63.30;100544.50;4947047;28;99627;-88
2021/12/03 04:24:24;;;;;;;7.17;4.77;;;;;;;3.73;63.44;100531.34;4947784;28;97510;-87
2021/12/03 04:26:50;;;;;;;6.90;4.80;;;;;;;3.73;63.14;100528.63;4951752;28;96869;-87
2021/12/03 04:29:15;;;;;;;9.93;5.10;;;;;;;3.74;63.30;100532.88;4947826;28;97955;-86
2021/12/03 04:31:40;;;;;;;6.67;4.93;;;;;;;3.74;63.46;100535.59;4951155;28;97073;-85
2021/12/03 04:34:06;;;;;;;8.90;4.90;;;;;;;3.75;63.15;100544.50;4948114;28;97090;-86
2021/12/03 04:36:31;;;;;;;7.00;5.10;;;;;;;3.78;63.18;100530.00;4946867;28;97010;-87
2021/12/03 04:38:56;;;;;;;7.27;4.50;;;;;;;3.79;63.51;100550.56;4944163;28;97510;-87
2021/12/03 04:41:22;;;;;;;9.83;4.90;;;;;;;3.78;63.45;100549.03;4965234;28;99806;-85
2021/12/03 04:43:48;;;;;;;6.57;4.60;;;;;;;3.74;63.23;100548.41;4949841;28;96715;-86
2021/12/03 04:46:13;;;;;;;6.43;4.90;;;;;;;3.75;63.31;100533.63;4948554;28;97730;-84
2021/12/03 04:48:39;;;;;;;7.53;4.60;;;;;;;3.81;63.33;100526.38;4940914;28;96915;-86
2021/12/03 04:51:04;;;;;;;9.70;4.73;;;;;;;3.78;63.33;100533.47;4941186;28;100711;-87
2021/12/03 04:53:30;;;;;;;8.97;4.93;;;;;;;3.80;63.26;100530.28;4945748;28;96975;-85
2021/12/03 04:55:55;;;;;;;7.53;3.97;;;;;;;3.78;63.40;100519.09;4958561;28;97342;-86
2021/12/03 04:58:21;;;;;;;7.70;4.40;;;;;;;3.89;63.21;100526.88;4940456;28;98682;-86
2021/12/03 05:00:50;;;;;;;5.40;4.57;;;;;;;3.92;63.35;100532.16;4946277;28;98430;-86
2021/12/03 05:03:17;;;;;;;7.40;4.70;;;;;;;3.94;63.26;100526.25;4956459;28;97328;-86
2021/12/03 05:05:49;;;;;;;8.00;5.13;;;;;;;3.91;63.25;100521.75;4942919;28;96979;-87
2021/12/03 05:08:15;;;;;;;5.70;3.73;;;;;;;3.89;63.37;100530.31;4944338;28;105114;-84
2021/12/03 05:10:43;;;;;;;6.80;5.60;;;;;;;3.93;63.51;100527.50;4944522;28;98396;-86
2021/12/03 05:13:11;;;;;;;7.53;4.90;;;;;;;3.92;63.45;100521.28;4947305;28;96967;-85
2021/12/03 05:15:38;;;;;;;7.27;4.73;;;;;;;3.97;63.14;100534.31;4949752;28;97070;-86
2021/12/03 05:18:05;;;;;;;5.60;4.40;;;;;;;4.01;63.01;100528.72;4948855;28;98212;-85
2021/12/03 05:20:39;;;;;;;7.80;4.80;;;;;;;4.00;63.21;100525.22;4941694;28;98662;-86
2021/12/03 05:23:07;;;;;;;6.70;4.47;;;;;;;4.03;63.45;100527.06;4943993;28;97464;-86
2021/12/03 05:25:33;;;;;;;7.40;5.00;;;;;;;4.05;63.22;100532.03;4948482;28;97054;-87
2021/12/03 05:28:01;;;;;;;8.27;5.13;;;;;;;4.03;63.19;100539.91;4964705;28;103174;-87
2021/12/03 05:30:27;;;;;;;7.20;4.67;;;;;;;3.98;63.04;100524.91;4943789;28;97411;-88
2021/12/03 05:32:52;;;;;;;6.73;4.40;;;;;;;4.01;63.51;100537.63;4946037;28;97190;-87
2021/12/03 05:35:18;;;;;;;5.83;4.17;;;;;;;4.04;63.16;100534.00;4947652;28;96962;-87
2021/12/03 05:37:43;;;;;;;6.87;4.87;;;;;;;4.04;63.32;100533.25;4945381;28;98615;-87
2021/12/03 05:40:11;;;;;;;7.10;5.07;;;;;;;4.04;63.29;100536.72;4968825;28;96960;-87
2021/12/03 05:42:37;;;;;;;5.93;4.93;;;;;;;4.03;63.45;100540.66;4957977;28;97074;-88
2021/12/03 05:45:05;;;;;;;7.40;5.10;;;;;;;4.06;63.32;100547.19;4952340;28;97050;-87
2021/12/03 05:47:30;;;;;;;8.27;5.40;;;;;;;4.06;63.35;100545.22;4947393;28;97116;-87
2021/12/03 05:49:56;;;;;;;10.73;4.70;;;;;;;4.05;63.48;100551.84;4966549;28;97326;-86
2021/12/03 05:52:21;;;;;;;5.53;4.80;;;;;;;4.06;63.27;100560.78;4948162;28;97004;-89
2021/12/03 05:54:47;;;;;;;9.00;4.50;;;;;;;4.06;63.30;100555.34;4944159;28;97242;-89
2021/12/03 05:57:12;;;;;;;8.70;5.53;;;;;;;4.07;63.15;100554.13;4944993;28;100015;-85
2021/12/03 05:59:38;;;;;;;7.87;4.70;;;;;;;4.11;63.55;100566.38;4945804;28;98258;-87
2021/12/03 06:02:04;;;;;;;7.40;5.67;;;;;;;4.03;63.28;100559.72;4946724;28;96895;-88
2021/12/03 06:04:29;;;;;;;8.30;4.67;;;;;;;4.10;63.29;100551.28;4941293;28;97494;-87
2021/12/03 06:06:55;;;;;;;6.63;5.70;;;;;;;4.13;63.28;100557.78;4947099;28;97788;-87
2021/12/03 06:09:21;;;;;;;9.87;6.00;;;;;;;4.13;63.24;100569.41;4965386;28;97599;-85
2021/12/03 06:11:47;;;;;;;10.20;5.47;;;;;;;4.16;63.48;100554.16;4942939;28;96962;-87
2021/12/03 06:14:12;;;;;;;8.63;5.80;;;;;;;4.13;63.54;100550.34;4948533;28;96836;-90
2021/12/03 06:16:37;;;;;;;10.27;5.70;;;;;;;4.12;63.16;100551.59;4948796;28;98832;-88
2021/12/03 06:19:03;;;;;;;10.53;5.40;;;;;;;4.09;63.19;100559.88;4960183;28;97459;-88
2021/12/03 06:21:29;;;;;;;8.03;5.73;;;;;;;4.10;63.35;100558.69;4966241;28;96878;-89
2021/12/03 06:23:54;;;;;;;9.77;6.60;;;;;;;4.08;63.54;100548.25;4949596;28;97320;-86
2021/12/03 06:26:19;;;;;;;11.33;6.60;;;;;;;4.09;63.50;100568.81;4946095;28;97907;-86
2021/12/03 06:28:45;;;;;;;12.30;6.47;;;;;;;4.11;63.35;100566.38;4947575;28;98844;-88
2021/12/03 06:31:10;;;;;;;12.87;6.73;;;;;;;4.11;63.32;100558.22;4946924;28;96909;-85
2021/12/03 06:33:36;;;;;;;10.97;6.80;;;;;;;4.11;63.46;100568.34;4944127;28;96930;-90
2021/12/03 06:36:01;;;;;;;13.27;7.17;;;;;;;4.11;63.35;100560.19;4947315;28;97877;-86
2021/12/03 06:38:27;;;;;;;11.80;7.00;;;;;;;4.12;63.50;100561.72;4945623;28;99651;-89
2021/12/03 06:40:53;;;;;;;10.83;7.07;;;;;;;4.13;63.58;100553.06;4960753;28;96864;-86
2021/12/03 06:43:19;;;;;;;11.50;7.00;;;;;;;4.07;63.59;100546.72;4966907;28;96799;-89
2021/12/03 06:45:45;;;;;;;13.27;7.77;;;;;;;4.15;63.54;100558.84;4949594;28;96722;-86
2021/12/03 06:48:11;;;;;;;14.77;6.90;;;;;;;4.14;63.62;100565.50;4950128;28;97224;-89
2021/12/03 06:50:38;;;;;;;12.77;6.90;;;;;;;4.15;63.64;100571.72;4949824;28;96909;-89
2021/12/03 06:53:10;;;;;;;15.17;8.23;;;;;;;4.12;63.69;100562.47;4951533;28;97390;-85
2021/12/03 06:58:16;;;;;;;12.30;7.20;;;;;;;4.20;63.81;100573.81;4945744;28;97295;-86
2021/12/03 07:00:42;;;;;;;20.40;8.20;;;;;;;4.19;63.63;100578.53;4964707;28;97161;-86
2021/12/03 07:03:08;;;;;;;13.70;7.17;;;;;;;4.17;63.89;100591.06;4948941;28;97284;-88
2021/12/03 07:05:34;;;;;;;13.43;7.00;;;;;;;4.28;63.82;100569.63;4954996;28;97883;-85
2021/12/03 07:07:59;;;;;;;15.70;7.37;;;;;;;4.31;63.42;100574.91;4945512;28;97287;-87
2021/12/03 07:10:25;;;;;;;15.80;8.27;;;;;;;4.28;63.59;100580.50;4947663;28;96811;-88
2021/12/03 07:12:50;;;;;;;16.37;8.40;;;;;;;4.32;63.73;100568.28;4948210;28;97474;-85
2021/12/03 07:15:17;;;;;;;16.27;8.20;;;;;;;4.32;63.88;100562.81;4946698;28;98708;-86
2021/12/03 07:17:43;;;;;;;21.80;10.30;;;;;;;4.29;63.65;100563.72;4949892;28;97783;-88
2021/12/03 07:20:09;;;;;;;20.50;9.80;;;;;;;4.29;64.16;100566.44;4968123;28;96754;-88
2021/12/03 07:22:35;;;;;;;20.53;9.57;;;;;;;4.30;63.69;100562.50;4947653;28;97230;-89
2021/12/03 07:25:00;;;;;;;24.13;9.73;;;;;;;4.35;63.89;100582.94;4963739;28;98898;-88
2021/12/03 07:27:26;;;;;;;19.83;8.60;;;;;;;4.35;63.90;100580.97;4949207;28;97896;-86
2021/12/03 07:29:51;;;;;;;23.93;10.17;;;;;;;4.38;63.84;100566.47;4950596;28;97031;-89
2021/12/03 07:32:19;;;;;;;21.83;10.60;;;;;;;4.37;63.83;100567.66;4967925;28;97048;-85
2021/12/03 07:34:45;;;;;;;28.00;11.40;;;;;;;4.38;63.89;100561.00;4949690;28;98517;-88
2021/12/03 07:37:11;;;;;;;28.40;11.17;;;;;;;4.39;63.79;100578.84;4948152;28;97036;-88
2021/12/03 07:39:37;;;;;;;23.20;11.07;;;;;;;4.38;64.08;100574.63;4950881;28;97253;-89
2021/12/03 07:42:03;;;;;;;27.70;11.57;;;;;;;4.35;64.04;100558.41;4950211;28;97122;-88
2021/12/03 07:44:29;;;;;;;23.00;11.63;;;;;;;4.45;63.94;100606.25;4948033;28;103734;-85
2021/12/03 07:46:54;;;;;;;25.47;10.70;;;;;;;4.49;63.77;100576.91;4948412;28;96849;-85
2021/12/03 07:49:21;;;;;;;23.93;11.63;;;;;;;4.50;63.67;100581.91;4974034;28;96717;-86
2021/12/03 07:51:47;;;;;;;22.33;10.50;;;;;;;4.49;63.76;100568.75;4948110;28;96924;-85
2021/12/03 07:54:12;;;;;;;23.50;10.90;;;;;;;4.52;64.06;100560.41;4947403;28;97927;-87
2021/12/03 07:56:38;;;;;;;24.67;11.27;;;;;;;4.55;64.03;100556.03;4946466;28;96702;-85
2021/12/03 07:59:04;;;;;;;26.80;12.53;;;;;;;4.56;64.05;100560.28;4964195;28;97165;-87
2021/12/03 08:01:29;;;;;;;23.87;11.17;;;;;;;4.59;64.10;100562.09;4946411;28;96946;-84
2021/12/03 08:03:55;;;;;;;22.70;11.37;;;;;;;4.59;64.14;100562.09;4949797;28;98675;-87
2021/12/03 08:06:20;;;;;;;20.60;10.73;;;;;;;4.53;63.96;100544.84;4948389;28;96846;-87
2021/12/03 08:08:46;;;;;;;21.40;10.60;;;;;;;4.67;64.14;100559.81;4944908;28;96684;-86
2021/12/03 08:11:11;;;;;;;19.87;10.60;;;;;;;4.67;63.95;100562.56;4947779;28;96942;-86
2021/12/03 08:13:37;;;;;;;20.20;10.43;;;;;;;4.71;63.82;100574.06;4949324;28;99837;-88
2021/12/03 08:16:03;;;;;;;24.70;11.67;;;;;;;4.73;63.94;100566.94;4950320;28;97300;-89
2021/12/03 08:18:29;;;;;;;22.00;10.70;;;;;;;4.75;63.71;100574.66;4949509;28;97059;-87
2021/12/03 08:20:54;;;;;;;23.93;11.93;;;;;;;4.73;63.94;100574.34;4956792;28;97247;-85
2021/12/03 08:23:20;;;;;;;23.57;11.70;;;;;;;4.72;63.88;100568.13;4948502;28;97015;-85
2021/12/03 08:25:46;;;;;;;24.27;11.30;;;;;;;4.75;64.13;100580.88;4964742;28;99227;-84
2021/12/03 08:28:11;;;;;;;19.77;10.53;;;;;;;4.78;64.11;100571.81;4948058;28;96854;-87
2021/12/03 08:30:37;;;;;;;20.50;10.63;;;;;;;4.78;63.99;100573.75;4964957;28;97309;-87
2021/12/03 08:33:03;;;;;;;20.60;10.10;;;;;;;4.81;64.04;100575.56;4949338;28;97169;-88
2021/12/03 08:35:29;;;;;;;22.60;10.57;;;;;;;4.82;63.92;100575.13;4947852;28;96870;-88
2021/12/03 08:37:55;;;;;;;18.83;10.17;;;;;;;4.85;64.24;100590.56;4966700;28;97114;-89
2021/12/03 08:40:21;;;;;;;20.00;10.10;;;;;;;4.87;63.94;100579.22;4948743;28;97403;-85
2021/12/03 08:42:48;;;;;;;21.87;11.07;;;;;;;4.89;64.03;100582.25;4961640;28;98350;-88
2021/12/03 08:45:17;;;;;;;21.57;10.97;;;;;;;4.91;64.00;100591.47;4967980;28;97043;-89
2021/12/03 08:47:45;;;;;;;18.77;10.30;;;;;;;4.89;64.05;100642.22;4948143;28;96731;-90
2021/12/03 08:50:17;;;;;;;21.03;10.40;;;;;;;4.94;64.22;100603.41;4945433;28;96845;-87
2021/12/03 08:53:02;;;;;;;25.07;9.97;;;;;;;4.95;64.20;100588.59;4947665;28;97183;-86
2021/12/03 08:55:27;;;;;;;16.40;9.00;;;;;;;4.99;64.13;100595.41;4961678;28;98885;-88
2021/12/03 08:57:54;;;;;;;20.40;10.83;;;;;;;5.01;63.83;100601.16;4969737;28;97329;-88
2021/12/03 09:00:19;;;;;;;19.80;10.23;;;;;;;5.00;64.10;100593.44;4948339;28;96966;-86
2021/12/03 09:02:45;;;;;;;20.83;10.97;;;;;;;5.08;64.13;100609.03;4946825;28;97525;-88
2021/12/03 09:05:12;;;;;;;19.07;10.03;;;;;;;5.07;64.10;100593.13;4948714;28;97306;-89
2021/12/03 09:07:38;;;;;;;19.53;9.70;;;;;;;5.12;63.90;100587.06;4951825;28;96885;-88
2021/12/03 09:10:05;;;;;;;17.83;9.67;;;;;;;5.12;64.04;100584.34;4950030;28;98892;-85
2021/12/03 09:12:31;;;;;;;22.60;9.87;;;;;;;5.18;64.11;100574.31;4945801;28;98687;-89
2021/12/03 09:14:59;;;;;;;17.07;10.30;;;;;;;5.16;63.76;100590.38;4948556;28;99159;-88
2021/12/03 09:23:10;;;;;;;14.80;9.13;;;;;;;5.27;64.00;100590.69;4950731;28;98853;-88
2021/12/03 09:25:39;;;;;;;18.27;10.10;;;;;;;5.23;64.16;100595.53;4949877;28;104730;-86
2021/12/03 09:28:08;;;;;;;19.23;10.10;;;;;;;5.23;64.55;100581.91;4946394;28;96865;-88
2021/12/03 09:30:38;;;;;;;19.27;11.10;;;;;;;5.21;63.77;100581.59;4947882;28;97196;-87
2021/12/03 09:33:07;;;;;;;18.73;11.20;;;;;;;5.21;64.22;100579.63;4965564;28;97698;-89
2021/12/03 09:35:35;;;;;;;19.93;11.27;;;;;;;5.26;64.03;100581.00;4947546;28;97655;-88
2021/12/03 09:38:01;;;;;;;17.40;10.50;;;;;;;5.37;64.28;100572.34;4946850;28;96774;-90
2021/12/03 09:40:30;;;;;;;18.20;9.83;;;;;;;5.42;64.06;100574.47;4972572;28;96928;-87
2021/12/03 09:42:56;;;;;;;17.63;9.60;;;;;;;5.44;63.94;100566.56;4945115;28;97912;-88
2021/12/03 09:45:21;;;;;;;17.30;9.83;;;;;;;5.50;63.83;100606.41;4949048;28;98539;-85
2021/12/03 09:47:48;;;;;;;19.13;8.40;;;;;;;5.58;63.87;100568.63;4946688;28;97248;-88
2021/12/03 09:50:14;;;;;;;17.73;10.10;;;;;;;5.51;63.84;100545.16;4946464;28;97143;-87
2021/12/03 09:53:07;;;;;;;16.37;9.30;;;;;;;5.63;63.49;100568.78;4960366;28;97535;-88
2021/12/03 09:55:28;;;;;;;15.70;8.70;;;;;;;5.67;63.82;100565.88;4947957;28;98782;-85
2021/12/03 10:03:16;;;;;;;15.70;8.97;;;;;;;5.77;63.38;100542.78;4946677;28;96815;-87
2021/12/03 10:11:49;;;;;;;12.60;8.10;;;;;;;5.92;63.30;100546.38;4945670;28;96954;-86
2021/12/03 10:20:00;;;;;;;16.90;8.50;;;;;;;5.90;63.43;100530.47;4942768;28;96904;-91
2021/12/03 10:28:16;;;;;;;12.73;8.20;;;;;;;5.95;63.50;100510.75;4942367;28;97162;-90
2021/12/03 10:47:03;;;;;;;16.60;8.00;;;;;;;6.20;63.45;100486.91;4948092;28;101647;-87
2021/12/03 10:49:39;;;;;;;11.87;7.77;;;;;;;6.21;63.24;100482.97;4944486;28;100636;-84
2021/12/03 10:52:31;;;;;;;12.67;7.70;;;;;;;6.23;62.88;100486.72;4945332;28;96918;-90
2021/12/03 10:55:24;;;;;;;11.50;7.33;;;;;;;6.22;63.50;100482.50;4945050;28;96964;-85
2021/12/03 11:03:43;;;;;;;12.63;7.30;;;;;;;6.25;63.16;100475.34;4948027;28;97353;-86
2021/12/03 11:17:30;;;;;;;16.97;7.90;;;;;;;6.33;63.37;100468.31;4945047;28;97437;-86
2021/12/03 11:30:21;;;;;;;16.70;9.00;;;;;;;6.45;63.15;100459.09;4950142;28;101189;-89
2021/12/03 11:47:03;;;;;;;14.77;9.00;;;;;;;6.51;62.90;100433.38;4947422;28;96754;-85
2021/12/03 11:58:02;;;;;;;14.23;8.40;;;;;;;6.60;63.07;100416.91;4947442;28;97013;-86
2021/12/03 12:01:31;;;;;;;13.90;8.03;;;;;;;6.66;62.98;100400.63;4946470;28;97252;-89
2021/12/03 13:11:06;;;;;;;10.40;6.10;;;;;;;7.05;61.92;100332.88;4946014;28;97335;-83
2021/12/03 13:14:12;;;;;;;7.47;5.50;;;;;;;7.02;61.62;100318.16;4947395;28;101534;-89
2021/12/03 14:36:22;;;;;;;6.37;2.20;;;;;;;6.86;61.55;100242.09;4944200;28;98287;-84
2021/12/03 14:38:46;;;;;;;3.83;2.07;;;;;;;6.81;61.63;100234.59;4941865;28;100665;-86
2021/12/03 14:41:39;;;;;;;9.53;3.00;;;;;;;6.74;61.54;100245.94;4946405;28;100609;-88
2021/12/03 14:49:33;;;;;;;8.00;2.67;;;;;;;6.59;61.91;100235.03;4942883;28;97832;-87
2021/12/03 14:55:44;;;;;;;1.70;1.53;;;;;;;6.46;61.96;100223.66;4938466;28;97391;-86
2021/12/03 15:07:32;;;;;;;3.10;2.00;;;;;;;6.51;62.44;100211.31;4945447;28;97097;-86
2021/12/03 15:09:57;;;;;;;3.93;2.00;;;;;;;6.55;62.26;100200.94;4945525;28;97392;-84
2021/12/03 15:23:20;;;;;;;6.13;2.17;;;;;;;6.52;62.41;100190.94;4945604;28;100489;-85
2021/12/03 15:28:22;;;;;;;10.57;2.43;;;;;;;6.49;62.51;100164.56;4945580;28;98353;-85
2021/12/03 15:36:27;;;;;;;2.83;1.40;;;;;;;6.46;62.04;100143.66;4949340;28;102317;-87
2021/12/03 15:39:09;;;;;;;3.33;1.70;;;;;;;6.46;62.32;100140.94;4945562;28;97179;-85
2021/12/03 15:55:37;;;;;;;1.73;1.40;;;;;;;6.46;62.18;100132.75;4950395;28;100427;-88
2021/12/03 15:58:08;;;;;;;9.83;1.40;;;;;;;6.44;61.98;100119.56;4946609;28;97360;-86
2021/12/03 16:04:02;;;;;;;2.47;1.73;;;;;;;6.41;62.53;100127.94;4950090;28;97183;-86
2021/12/03 16:09:10;;;;;;;5.50;1.60;;;;;;;6.36;62.36;100115.72;4940700;28;101334;-86
2021/12/03 16:11:42;;;;;;;3.50;2.10;;;;;;;6.36;62.33;100134.84;4945756;28;96628;-86
2021/12/03 16:19:24;;;;;;;4.97;1.70;;;;;;;6.35;62.58;100081.44;4946962;28;96859;-85
2021/12/03 16:27:13;;;;;;;3.93;1.67;;;;;;;6.31;62.50;100102.00;4946446;28;97673;-87
2021/12/03 16:53:57;;;;;;;3.87;1.57;;;;;;;6.18;62.66;100068.78;4948735;28;97461;-86
2021/12/03 16:56:26;;;;;;;1.93;1.50;;;;;;;6.18;62.80;100058.59;4945243;28;97150;-85
2021/12/03 16:58:53;;;;;;;2.57;2.00;;;;;;;6.18;63.00;100085.91;4942394;28;98075;-84
2021/12/03 17:49:01;;;;;;;2.40;1.10;;;;;;;6.31;62.91;100030.97;4943521;28;96760;-87
2021/12/03 17:57:12;;;;;;;5.23;1.20;;;;;;;6.36;62.43;100024.81;4920958;28;97030;-88
2021/12/03 17:59:43;;;;;;;2.73;1.40;;;;;;;6.34;62.48;100038.19;4944377;28;96903;-87